createdAt,value
2018-04-09T00:01:50.725Z,17.40
2018-04-09T00:04:18.117Z,14.30
2018-04-09T00:06:45.512Z,13.50
2018-04-09T00:09:12.896Z,13.27
2018-04-09T00:11:40.308Z,13.53
2018-04-09T00:14:07.697Z,13.67
2018-04-09T00:16:35.069Z,14.93
2018-04-09T00:19:02.485Z,13.57
2018-04-09T00:21:29.870Z,13.57
2018-04-09T00:23:57.280Z,14.00
2018-04-09T00:26:24.668Z,13.67
2018-04-09T00:28:52.077Z,13.03
2018-04-09T00:31:19.476Z,14.00
2018-04-09T00:33:46.864Z,13.63
2018-04-09T00:36:14.246Z,13.97
2018-04-09T00:38:41.662Z,14.60
2018-04-09T00:41:09.051Z,13.47
2018-04-09T00:43:36.429Z,14.43
2018-04-09T00:46:03.820Z,13.43
2018-04-09T00:48:31.208Z,13.30
2018-04-09T00:50:58.588Z,14.10
2018-04-09T00:53:37.957Z,13.30
2018-04-09T00:56:05.337Z,15.50
2018-04-09T00:58:32.740Z,13.80
2018-04-09T01:01:00.144Z,12.77
2018-04-09T01:03:27.544Z,14.10
2018-04-09T01:05:54.928Z,13.87
2018-04-09T01:08:22.317Z,12.90
2018-04-09T01:10:49.705Z,12.93
2018-04-09T01:13:17.108Z,13.80
2018-04-09T01:15:44.525Z,13.87
2018-04-09T01:18:11.907Z,13.33
2018-04-09T01:20:39.292Z,14.47
2018-04-09T01:23:06.685Z,13.50
2018-04-09T01:25:34.080Z,14.27
2018-04-09T01:28:01.466Z,13.93
2018-04-09T01:30:28.868Z,13.63
2018-04-09T01:32:56.294Z,13.40
2018-04-09T01:35:23.684Z,12.93
2018-04-09T01:37:51.084Z,13.20
2018-04-09T01:40:18.464Z,13.23
2018-04-09T01:42:45.861Z,13.10
2018-04-09T01:45:13.257Z,13.37
2018-04-09T01:47:40.828Z,13.47
2018-04-09T01:50:08.244Z,13.17
2018-04-09T01:52:35.632Z,14.30
2018-04-09T01:55:03.044Z,14.63
2018-04-09T01:57:30.417Z,13.00
2018-04-09T01:59:57.908Z,12.03
2018-04-09T02:02:25.292Z,12.33
2018-04-09T02:04:52.680Z,12.93
2018-04-09T02:07:20.080Z,14.03
2018-04-09T02:09:47.472Z,15.17
2018-04-09T02:12:14.881Z,13.90
2018-04-09T02:14:42.268Z,12.50
2018-04-09T02:17:09.656Z,13.43
2018-04-09T02:19:37.046Z,13.90
2018-04-09T02:22:04.453Z,13.47
2018-04-09T02:24:31.840Z,13.13
2018-04-09T02:26:59.225Z,13.83
2018-04-09T02:29:26.622Z,13.20
2018-04-09T02:31:54.013Z,17.67
2018-04-09T02:34:21.393Z,12.93
2018-04-09T02:36:48.800Z,13.13
2018-04-09T02:39:16.188Z,12.90
2018-04-09T02:41:43.588Z,14.40
2018-04-09T02:44:10.979Z,13.23
2018-04-09T02:46:38.363Z,12.90
2018-04-09T02:49:05.768Z,12.47
2018-04-09T02:51:33.164Z,13.33
2018-04-09T02:54:00.542Z,13.20
2018-04-09T02:56:27.958Z,13.53
2018-04-09T02:58:55.376Z,13.43
2018-04-09T03:01:22.774Z,13.40
2018-04-09T03:03:50.178Z,12.83
2018-04-09T03:06:17.582Z,13.90
2018-04-09T03:08:44.956Z,12.13
2018-04-09T03:11:12.357Z,12.83
2018-04-09T03:13:39.753Z,13.17
2018-04-09T03:16:07.139Z,12.50
2018-04-09T03:18:34.517Z,13.00
2018-04-09T03:21:01.929Z,15.67
2018-04-09T03:23:29.327Z,13.33
2018-04-09T03:25:56.720Z,13.93
2018-04-09T03:28:24.104Z,13.70
2018-04-09T03:30:51.493Z,12.60
2018-04-09T03:33:18.880Z,14.07
2018-04-09T03:35:46.278Z,13.27
2018-04-09T03:38:13.672Z,14.23
2018-04-09T03:40:41.069Z,13.10
2018-04-09T03:43:08.444Z,12.50
2018-04-09T03:45:35.901Z,13.30
2018-04-09T03:48:03.300Z,13.03
2018-04-09T03:50:30.685Z,13.00
2018-04-09T03:52:58.088Z,13.50
2018-04-09T03:55:25.472Z,14.10
2018-04-09T03:57:52.865Z,13.27
2018-04-09T04:00:20.284Z,12.87
2018-04-09T04:02:47.704Z,13.33
2018-04-09T04:05:15.090Z,12.53
2018-04-09T04:07:42.476Z,12.50
2018-04-09T04:10:09.905Z,15.60
2018-04-09T04:12:37.297Z,12.93
2018-04-09T04:15:04.746Z,12.23
2018-04-09T04:17:43.804Z,13.37
2018-04-09T04:20:22.861Z,12.40
2018-04-09T04:22:50.241Z,12.90
2018-04-09T04:25:17.616Z,12.87
2018-04-09T04:27:45.013Z,15.17
2018-04-09T04:30:12.396Z,13.87
2018-04-09T04:32:39.800Z,14.03
2018-04-09T04:35:07.189Z,14.83
2018-04-09T04:37:34.573Z,13.83
2018-04-09T04:40:01.965Z,12.67
2018-04-09T04:42:29.344Z,13.20
2018-04-09T04:44:56.755Z,13.30
2018-04-09T04:47:24.151Z,14.93
2018-04-09T04:49:51.640Z,16.60
2018-04-09T04:52:19.033Z,14.17
2018-04-09T04:54:46.424Z,15.80
2018-04-09T04:57:13.872Z,15.33
2018-04-09T04:59:41.273Z,14.60
2018-04-09T05:02:08.672Z,14.10
2018-04-09T05:04:36.097Z,14.03
2018-04-09T05:07:03.503Z,13.77
2018-04-09T05:09:30.948Z,13.50
2018-04-09T05:11:58.344Z,16.47
2018-04-09T05:14:25.759Z,16.60
2018-04-09T05:16:53.157Z,14.80
2018-04-09T05:19:20.556Z,14.80
2018-04-09T05:21:47.985Z,14.63
2018-04-09T05:24:15.370Z,15.03
2018-04-09T05:26:42.760Z,13.20
2018-04-09T05:29:10.161Z,13.20
2018-04-09T05:31:37.535Z,15.53
2018-04-09T05:34:04.936Z,14.77
2018-04-09T05:36:32.353Z,13.83
2018-04-09T05:38:59.724Z,13.00
2018-04-09T05:41:27.145Z,14.10
2018-04-09T05:43:54.513Z,14.73
2018-04-09T05:46:21.904Z,14.73
2018-04-09T05:48:49.408Z,13.93
2018-04-09T05:51:16.798Z,14.77
2018-04-09T05:53:44.352Z,14.57
2018-04-09T05:56:11.743Z,13.80
2018-04-09T05:58:39.155Z,15.30
2018-04-09T06:01:06.558Z,13.57
2018-04-09T06:03:33.947Z,14.80
2018-04-09T06:06:01.424Z,16.03
2018-04-09T06:08:28.828Z,16.73
2018-04-09T06:10:56.224Z,16.47
2018-04-09T06:13:23.612Z,16.83
2018-04-09T06:15:51.037Z,16.27
2018-04-09T06:18:18.447Z,17.53
2018-04-09T06:20:45.854Z,16.20
2018-04-09T06:23:13.266Z,17.20
2018-04-09T06:25:40.633Z,17.10
2018-04-09T06:28:08.036Z,17.87
2018-04-09T06:30:35.420Z,19.97
2018-04-09T06:33:02.840Z,14.63
2018-04-09T06:35:30.221Z,15.60
2018-04-09T06:37:57.606Z,16.03
2018-04-09T06:40:24.997Z,17.20
2018-04-09T06:42:52.372Z,17.07
2018-04-09T06:45:19.759Z,18.27
2018-04-09T06:47:47.164Z,15.50
2018-04-09T06:50:14.548Z,18.97
2018-04-09T06:52:42.392Z,14.03
2018-04-09T06:55:09.805Z,15.37
2018-04-09T06:57:37.188Z,15.80
2018-04-09T07:00:04.580Z,16.73
2018-04-09T07:02:32.013Z,16.40
2018-04-09T07:04:59.408Z,15.70
2018-04-09T07:07:26.803Z,16.70
2018-04-09T07:09:54.189Z,15.97
2018-04-09T07:12:21.600Z,16.53
2018-04-09T07:14:48.993Z,17.33
2018-04-09T07:17:16.408Z,16.97
2018-04-09T07:19:43.776Z,18.67
2018-04-09T07:22:11.175Z,17.13
2018-04-09T07:24:38.592Z,19.23
2018-04-09T07:27:05.982Z,19.83
2018-04-09T07:29:33.391Z,22.40
2018-04-09T07:32:00.804Z,18.63
2018-04-09T07:34:28.204Z,21.70
2018-04-09T07:36:55.584Z,24.10
2018-04-09T07:39:23.000Z,26.67
2018-04-09T07:41:50.365Z,26.70
2018-04-09T07:44:17.775Z,26.43
2018-04-09T07:46:45.157Z,29.43
2018-04-09T07:49:12.525Z,30.37
2018-04-09T07:51:39.913Z,30.83
2018-04-09T07:54:07.316Z,28.67
2018-04-09T07:56:34.783Z,31.93
2018-04-09T07:59:02.165Z,30.07
2018-04-09T08:01:29.561Z,28.63
2018-04-09T08:03:56.936Z,31.13
2018-04-09T08:06:24.342Z,26.00
2018-04-09T08:08:51.720Z,25.93
2018-04-09T08:11:19.112Z,28.77
2018-04-09T08:13:46.499Z,32.17
2018-04-09T08:16:13.947Z,37.30
2018-04-09T08:18:41.320Z,31.47
2018-04-09T08:21:08.720Z,34.07
2018-04-09T08:23:36.163Z,34.90
2018-04-09T08:26:03.552Z,33.67
2018-04-09T08:28:30.971Z,32.10
2018-04-09T08:30:58.450Z,31.20
2018-04-09T08:33:25.931Z,33.53
2018-04-09T08:35:53.339Z,34.13
2018-04-09T08:38:20.863Z,25.63
2018-04-09T08:40:48.252Z,27.70
2018-04-09T08:43:15.698Z,26.27
2018-04-09T08:45:43.088Z,27.90
2018-04-09T08:48:10.583Z,28.00
2018-04-09T08:50:37.965Z,29.83
2018-04-09T08:53:05.727Z,29.97
2018-04-09T08:55:33.154Z,28.67
2018-04-09T08:58:00.525Z,28.00
2018-04-09T09:00:27.903Z,28.93
2018-04-09T09:02:55.357Z,29.93
2018-04-09T09:05:22.750Z,29.63
2018-04-09T09:07:50.135Z,29.87
2018-04-09T09:10:17.521Z,26.67
2018-04-09T09:12:44.959Z,26.40
2018-04-09T09:15:12.359Z,29.67
2018-04-09T09:17:39.757Z,27.40
2018-04-09T09:20:07.180Z,31.03
2018-04-09T09:22:34.608Z,24.53
2018-04-09T09:25:02.001Z,26.23
2018-04-09T09:27:29.389Z,25.37
2018-04-09T09:29:56.795Z,25.30
2018-04-09T09:32:24.175Z,23.80
2018-04-09T09:34:51.576Z,23.57
2018-04-09T09:37:18.986Z,33.67
2018-04-09T09:39:46.376Z,27.30
2018-04-09T09:42:13.770Z,27.40
2018-04-09T09:44:41.165Z,28.97
2018-04-09T09:47:08.633Z,28.43
2018-04-09T09:49:36.036Z,35.33
2018-04-09T09:52:03.439Z,27.83
2018-04-09T09:54:30.830Z,30.33
2018-04-09T09:56:58.212Z,36.70
2018-04-09T09:59:25.600Z,31.50
2018-04-09T10:01:52.997Z,30.87
2018-04-09T10:04:20.381Z,31.43
2018-04-09T10:06:47.783Z,32.00
2018-04-09T10:09:15.160Z,32.43
2018-04-09T10:11:42.569Z,31.83
2018-04-09T10:14:10.208Z,34.50
2018-04-09T10:16:37.620Z,30.10
2018-04-09T10:19:05.001Z,29.00
2018-04-09T10:21:32.447Z,27.37
2018-04-09T10:23:59.820Z,28.07
2018-04-09T10:26:27.200Z,26.43
2018-04-09T10:28:54.614Z,28.97
2018-04-09T10:31:22.004Z,28.00
2018-04-09T10:33:49.428Z,27.67
2018-04-09T10:36:16.822Z,28.40
2018-04-09T10:38:44.204Z,27.70
2018-04-09T10:41:11.592Z,28.63
2018-04-09T10:43:38.980Z,30.20
2018-04-09T10:46:06.612Z,26.80
2018-04-09T10:48:34.005Z,28.43
2018-04-09T10:51:01.400Z,27.00
2018-04-09T10:53:28.798Z,26.67
2018-04-09T10:55:56.188Z,28.97
2018-04-09T10:58:23.593Z,29.90
2018-04-09T11:00:51.000Z,28.10
2018-04-09T11:03:18.670Z,30.10
2018-04-09T11:05:46.053Z,29.90
2018-04-09T11:08:13.453Z,28.13
2018-04-09T11:10:40.836Z,30.73
2018-04-09T11:13:08.255Z,30.63
2018-04-09T11:15:35.624Z,29.80
2018-04-09T11:18:03.014Z,31.57
2018-04-09T11:20:30.430Z,30.70
2018-04-09T11:22:57.841Z,32.70
2018-04-09T11:25:25.216Z,29.40
2018-04-09T11:27:52.605Z,30.17
2018-04-09T11:30:19.988Z,31.00
2018-04-09T11:32:47.381Z,33.53
2018-04-09T11:35:14.773Z,36.87
2018-04-09T11:37:42.166Z,31.37
2018-04-09T11:40:09.550Z,31.00
2018-04-09T11:42:36.934Z,30.47
2018-04-09T11:45:04.323Z,32.77
2018-04-09T11:47:31.718Z,33.40
2018-04-09T11:49:59.109Z,29.73
2018-04-09T11:52:26.545Z,30.03
2018-04-09T11:54:53.933Z,30.63
2018-04-09T11:57:21.339Z,33.87
2018-04-09T11:59:48.715Z,28.70
2018-04-09T12:02:16.136Z,29.70
2018-04-09T12:04:43.515Z,30.63
2018-04-09T12:07:10.902Z,31.97
2018-04-09T12:09:38.338Z,31.00
2018-04-09T12:12:05.764Z,29.60
2018-04-09T12:14:33.148Z,35.80
2018-04-09T12:17:00.542Z,32.47
2018-04-09T12:19:28.005Z,31.70
2018-04-09T12:21:55.446Z,34.17
2018-04-09T12:24:22.838Z,30.53
2018-04-09T12:26:50.227Z,32.87
2018-04-09T12:29:17.622Z,34.00
2018-04-09T12:31:45.005Z,34.13
2018-04-09T12:34:12.408Z,31.77
2018-04-09T12:36:39.779Z,31.47
2018-04-09T12:39:07.168Z,32.83
2018-04-09T12:41:34.560Z,31.40
2018-04-09T12:44:01.950Z,32.03
2018-04-09T12:46:29.366Z,36.10
2018-04-09T12:48:56.765Z,30.97
2018-04-09T12:51:24.142Z,35.73
2018-04-09T12:53:51.556Z,34.50
2018-04-09T12:56:18.955Z,42.53
2018-04-09T12:58:46.326Z,44.97
2018-04-09T13:01:13.747Z,41.50
2018-04-09T13:03:41.511Z,41.17
2018-04-09T13:06:08.896Z,43.53
2018-04-09T13:08:36.274Z,40.77
2018-04-09T13:11:03.670Z,43.00
2018-04-09T13:13:31.059Z,40.37
2018-04-09T13:15:58.458Z,44.10
2018-04-09T13:18:25.846Z,44.00
2018-04-09T13:20:53.237Z,43.80
2018-04-09T13:23:20.631Z,45.37
2018-04-09T13:25:49.353Z,40.73
2018-04-09T13:28:16.742Z,51.87
2018-04-09T13:30:44.154Z,52.73
2018-04-09T13:33:11.542Z,56.73
2018-04-09T13:35:38.962Z,58.70
2018-04-09T13:38:06.326Z,58.03
2018-04-09T13:40:33.715Z,57.10
2018-04-09T13:43:01.102Z,48.57
2018-04-09T13:45:28.494Z,60.47
2018-04-09T13:47:55.893Z,56.10
2018-04-09T13:50:23.282Z,57.23
2018-04-09T13:52:50.675Z,56.13
2018-04-09T13:55:18.054Z,60.23
2018-04-09T13:57:45.458Z,60.60
2018-04-09T14:00:12.850Z,65.20
2018-04-09T14:02:40.254Z,58.80
2018-04-09T14:05:07.654Z,57.30
2018-04-09T14:07:35.034Z,65.70
2018-04-09T14:10:02.478Z,63.60
2018-04-09T14:12:29.854Z,57.47
2018-04-09T14:14:57.241Z,60.33
2018-04-09T14:17:24.628Z,56.73
2018-04-09T14:19:52.006Z,60.30
2018-04-09T14:22:19.566Z,63.13
2018-04-09T14:24:46.946Z,62.30
2018-04-09T14:27:14.347Z,60.80
2018-04-09T14:29:41.724Z,67.90
2018-04-09T14:32:09.127Z,71.90
2018-04-09T14:34:36.502Z,65.07
2018-04-09T14:37:03.887Z,64.70
2018-04-09T14:39:31.278Z,60.27
2018-04-09T14:41:58.663Z,64.73
2018-04-09T14:44:26.050Z,68.50
2018-04-09T14:46:53.452Z,65.20
2018-04-09T14:49:20.846Z,62.73
2018-04-09T14:51:48.227Z,62.03
2018-04-09T14:54:15.619Z,65.37
2018-04-09T14:56:43.007Z,65.53
2018-04-09T14:59:10.391Z,58.10
2018-04-09T15:01:37.782Z,58.80
2018-04-09T15:04:05.170Z,63.03
2018-04-09T15:06:32.562Z,67.30
2018-04-09T15:08:59.938Z,57.57
2018-04-09T15:11:27.334Z,61.97
2018-04-09T15:13:54.718Z,67.23
2018-04-09T15:16:22.115Z,59.50
2018-04-09T15:18:49.495Z,61.33
2018-04-09T15:21:16.891Z,66.70
2018-04-09T15:23:44.282Z,60.50
2018-04-09T15:26:11.703Z,62.53
2018-04-09T15:28:39.086Z,66.47
2018-04-09T15:31:06.496Z,61.00
2018-04-09T15:33:33.870Z,56.23
2018-04-09T15:36:01.266Z,60.97
2018-04-09T15:38:28.651Z,50.03
2018-04-09T15:40:56.038Z,57.20
2018-04-09T15:43:23.422Z,55.87
2018-04-09T15:45:50.810Z,66.33
2018-04-09T15:48:18.222Z,53.87
2018-04-09T15:50:45.594Z,52.87
2018-04-09T15:53:12.986Z,62.53
2018-04-09T15:55:40.366Z,57.47
2018-04-09T15:58:07.750Z,58.50
2018-04-09T16:00:35.137Z,63.47
2018-04-09T16:03:02.529Z,58.50
2018-04-09T16:05:29.911Z,52.67
2018-04-09T16:07:57.299Z,49.13
2018-04-09T16:10:24.686Z,52.83
2018-04-09T16:12:52.074Z,63.87
2018-04-09T16:15:19.463Z,55.03
2018-04-09T16:17:58.454Z,50.70
2018-04-09T16:20:25.838Z,51.97
2018-04-09T16:22:53.244Z,50.93
2018-04-09T16:25:20.690Z,58.17
2018-04-09T16:27:48.087Z,60.43
2018-04-09T16:30:15.470Z,55.87
2018-04-09T16:32:42.853Z,53.63
2018-04-09T16:35:10.241Z,50.67
2018-04-09T16:37:37.622Z,52.53
2018-04-09T16:40:05.019Z,48.07
2018-04-09T16:42:32.401Z,48.73
2018-04-09T16:44:59.858Z,49.90
2018-04-09T16:47:27.282Z,52.20
2018-04-09T16:49:54.696Z,51.97
2018-04-09T16:52:22.059Z,47.47
2018-04-09T16:54:49.447Z,44.47
2018-04-09T16:57:16.827Z,45.30
2018-04-09T16:59:44.215Z,46.60
2018-04-09T17:02:11.602Z,46.67
2018-04-09T17:04:38.998Z,48.23
2018-04-09T17:07:06.394Z,55.33
2018-04-09T17:09:33.912Z,53.63
2018-04-09T17:12:01.306Z,43.43
2018-04-09T17:14:28.692Z,42.47
2018-04-09T17:16:56.078Z,49.97
2018-04-09T17:19:23.493Z,52.57
2018-04-09T17:21:50.875Z,46.63
2018-04-09T17:24:18.262Z,44.50
2018-04-09T17:26:45.650Z,42.13
2018-04-09T17:29:13.030Z,46.83
2018-04-09T17:31:40.467Z,45.73
2018-04-09T17:34:07.850Z,42.53
2018-04-09T17:36:35.242Z,42.67
2018-04-09T17:39:02.622Z,43.47
2018-04-09T17:41:30.011Z,44.43
2018-04-09T17:43:57.394Z,47.70
2018-04-09T17:46:24.792Z,52.23
2018-04-09T17:48:52.206Z,47.20
2018-04-09T17:51:19.591Z,49.13
2018-04-09T17:53:47.052Z,46.10
2018-04-09T17:56:14.439Z,46.80
2018-04-09T17:58:41.896Z,41.57
2018-04-09T18:01:09.343Z,38.07
2018-04-09T18:03:36.799Z,40.77
2018-04-09T18:06:04.270Z,39.27
2018-04-09T18:08:31.662Z,38.33
2018-04-09T18:10:59.070Z,33.60
2018-04-09T18:13:26.463Z,34.27
2018-04-09T18:15:53.846Z,29.07
2018-04-09T18:18:21.239Z,24.20
2018-04-09T18:20:48.636Z,23.73
2018-04-09T18:23:16.025Z,24.03
2018-04-09T18:25:43.426Z,20.80
2018-04-09T18:28:10.820Z,20.67
2018-04-09T18:30:38.198Z,19.67
2018-04-09T18:33:05.586Z,19.90
2018-04-09T18:35:32.990Z,19.97
2018-04-09T18:38:00.387Z,20.10
2018-04-09T18:40:27.774Z,18.03
2018-04-09T18:42:55.472Z,18.33
2018-04-09T18:45:22.902Z,17.50
2018-04-09T18:47:50.335Z,18.87
2018-04-09T18:50:17.743Z,17.57
2018-04-09T18:52:45.245Z,17.13
2018-04-09T18:55:12.622Z,18.10
2018-04-09T18:57:40.014Z,18.20
2018-04-09T19:00:07.406Z,16.67
2018-04-09T19:02:34.791Z,15.43
2018-04-09T19:05:02.183Z,19.77
2018-04-09T19:07:29.610Z,16.97
2018-04-09T19:09:56.994Z,16.20
2018-04-09T19:12:24.380Z,18.60
2018-04-09T19:14:51.771Z,18.07
2018-04-09T19:17:19.195Z,18.20
2018-04-09T19:19:46.640Z,20.00
2018-04-09T19:22:14.003Z,17.80
2018-04-09T19:24:41.455Z,21.40
2018-04-09T19:27:08.854Z,20.77
2018-04-09T19:29:36.234Z,22.00
2018-04-09T19:32:03.634Z,20.23
2018-04-09T19:34:31.030Z,18.13
2018-04-09T19:37:03.979Z,19.40
2018-04-09T19:42:47.782Z,21.00
2018-04-09T19:45:15.171Z,20.90
2018-04-09T19:47:42.650Z,20.17
2018-04-09T19:50:10.034Z,19.70
2018-04-09T19:52:37.447Z,21.27
2018-04-09T19:55:04.818Z,19.30
2018-04-09T19:57:32.205Z,25.47
2018-04-09T19:59:59.599Z,19.23
2018-04-09T20:02:26.982Z,19.30
2018-04-09T20:04:54.383Z,19.10
2018-04-09T20:07:21.763Z,17.40
2018-04-09T20:09:49.150Z,18.37
2018-04-09T20:12:16.537Z,17.50
2018-04-09T20:14:43.926Z,17.50
2018-04-09T20:17:11.310Z,18.20
2018-04-09T20:19:38.698Z,16.53
2018-04-09T20:22:06.112Z,18.03
2018-04-09T20:24:33.478Z,17.00
2018-04-09T20:27:00.859Z,18.43
2018-04-09T20:29:28.243Z,18.27
2018-04-09T20:31:55.633Z,17.60
2018-04-09T20:34:23.008Z,17.90
2018-04-09T20:36:50.398Z,18.67
2018-04-09T20:39:17.779Z,19.60
2018-04-09T20:41:45.167Z,18.13
2018-04-09T20:44:12.550Z,18.50
2018-04-09T20:46:39.950Z,18.63
2018-04-09T20:49:07.330Z,18.90
2018-04-09T20:51:34.747Z,20.50
2018-04-09T20:54:02.135Z,18.23
2018-04-09T20:56:29.527Z,18.70
2018-04-09T20:58:56.919Z,18.53
2018-04-09T21:01:24.298Z,18.10
2018-04-09T21:03:51.686Z,19.63
2018-04-09T21:06:19.126Z,17.77
2018-04-09T21:08:46.467Z,17.80
2018-04-09T21:11:13.850Z,16.20
2018-04-09T21:13:41.252Z,18.40
2018-04-09T21:16:08.634Z,16.87
2018-04-09T21:18:36.034Z,16.73
2018-04-09T21:21:03.418Z,18.30
2018-04-09T21:23:30.802Z,18.50
2018-04-09T21:25:58.199Z,17.67
2018-04-09T21:28:25.579Z,17.80
2018-04-09T21:30:52.966Z,19.13
2018-04-09T21:33:20.346Z,18.47
2018-04-09T21:35:47.747Z,18.27
2018-04-09T21:38:15.126Z,18.37
2018-04-09T21:40:42.518Z,17.47
2018-04-09T21:43:09.902Z,17.83
2018-04-09T21:45:37.288Z,18.77
2018-04-09T21:48:04.675Z,18.50
2018-04-09T21:50:32.070Z,18.50
2018-04-09T21:52:59.546Z,17.30
2018-04-09T21:55:26.932Z,18.40
2018-04-09T21:57:54.321Z,20.47
2018-04-09T22:00:21.697Z,20.10
2018-04-09T22:02:49.102Z,20.33
2018-04-09T22:05:16.490Z,19.37
2018-04-09T22:07:43.899Z,19.10
2018-04-09T22:10:11.274Z,19.27
2018-04-09T22:12:38.663Z,18.80
2018-04-09T22:15:06.047Z,19.20
2018-04-09T22:17:33.442Z,18.47
2018-04-09T22:20:00.835Z,19.53
2018-04-09T22:22:28.219Z,19.80
2018-04-09T22:24:55.606Z,18.50
2018-04-09T22:27:22.990Z,19.20
2018-04-09T22:29:50.379Z,19.67
2018-04-09T22:32:17.758Z,18.60
2018-04-09T22:34:45.151Z,19.33
2018-04-09T22:37:12.531Z,17.97
2018-04-09T22:39:39.919Z,20.30
2018-04-09T22:42:07.303Z,19.17
2018-04-09T22:44:34.713Z,18.60
2018-04-09T22:47:02.078Z,19.67
2018-04-09T22:49:29.527Z,19.43
2018-04-09T22:51:56.887Z,19.47
2018-04-09T22:54:24.274Z,20.17
2018-04-09T22:56:51.733Z,19.07
2018-04-09T22:59:19.118Z,20.57
2018-04-09T23:01:46.514Z,21.40
2018-04-09T23:04:13.909Z,21.70
2018-04-09T23:06:41.298Z,21.10
2018-04-09T23:09:08.690Z,22.07
2018-04-09T23:11:36.082Z,24.30
2018-04-09T23:14:03.461Z,24.93
2018-04-09T23:16:30.855Z,26.07
2018-04-09T23:18:58.234Z,27.10
2018-04-09T23:21:25.646Z,26.67
2018-04-09T23:23:53.027Z,28.50
2018-04-09T23:26:20.414Z,25.37
2018-04-09T23:28:47.804Z,27.17
2018-04-09T23:31:15.192Z,31.83
2018-04-09T23:33:42.582Z,29.70
2018-04-09T23:36:09.970Z,30.43
2018-04-09T23:38:37.362Z,30.97
2018-04-09T23:41:04.746Z,32.80
2018-04-09T23:43:32.134Z,32.23
2018-04-09T23:45:59.515Z,33.67
2018-04-09T23:48:26.914Z,35.03
2018-04-09T23:50:54.298Z,37.80
2018-04-09T23:53:21.677Z,38.10
2018-04-09T23:55:49.083Z,37.50
2018-04-09T23:58:16.469Z,37.93
